Wetterdaten: aktuell Sonntag, 17.11.2019 16:45
Datum Zeit Temp. 2m Feuchte 2m Luftdruck Regen Wind Richtung Richtung Taupunkt Windchill Windben
17.11.2019 16:45 5,2 C 90 % 1002,7 hPa 0,0 l/m 4,7 km/h N-NW 337 3,7 C 5,2 C 6,5 km/h
17.11.2019 16:40 5,2 C 90 % 1002,7 hPa 0,0 l/m 4,0 km/h N 360 3,7 C 5,2 C 4,3 km/h
17.11.2019 16:35 5,2 C 90 % 1002,7 hPa 0,0 l/m 2,5 km/h N-NO 22 3,7 C 5,2 C 4,3 km/h
17.11.2019 16:30 5,1 C 90 % 1002,7 hPa 0,0 l/m 2,9 km/h N-NO 22 3,6 C 5,1 C 4,3 km/h
17.11.2019 16:25 5,2 C 90 % 1002,7 hPa 0,0 l/m 2,5 km/h N-NO 22 3,7 C 5,2 C 4,3 km/h
17.11.2019 16:20 5,2 C 90 % 1002,7 hPa 0,0 l/m 1,4 km/h N-NO 22 3,7 C 5,2 C 4,3 km/h
17.11.2019 16:15 5,1 C 90 % 1002,7 hPa 0,0 l/m 0,7 km/h N 360 3,6 C 5,1 C 2,2 km/h
17.11.2019 16:10 5,1 C 90 % 1002,7 hPa 0,0 l/m 4,3 km/h N 360 3,6 C 5,1 C 6,5 km/h
17.11.2019 16:05 5,1 C 90 % 1003,7 hPa 0,0 l/m 2,2 km/h N 360 3,6 C 5,1 C 4,3 km/h
17.11.2019 16:00 5,1 C 90 % 1002,7 hPa 0,0 l/m 5,0 km/h N-NO 22 3,6 C 5,1 C 6,5 km/h
17.11.2019 15:55 5,1 C 90 % 1003,7 hPa 0,0 l/m 4,0 km/h N 360 3,6 C 5,1 C 8,6 km/h
17.11.2019 15:50 5,0 C 90 % 1003,7 hPa 0,0 l/m 1,8 km/h N 360 3,5 C 5,0 C 2,2 km/h
17.11.2019 15:45 5,0 C 90 % 1003,7 hPa 0,0 l/m 5,4 km/h N-NW 337 3,5 C 5,0 C 8,6 km/h
17.11.2019 15:40 5,0 C 90 % 1003,7 hPa 0,0 l/m 4,0 km/h NO 45 3,5 C 5,0 C 6,5 km/h
17.11.2019 15:35 5,0 C 90 % 1003,7 hPa 0,0 l/m 5,0 km/h N 360 3,5 C 5,0 C 8,6 km/h
17.11.2019 15:30 5,0 C 90 % 1003,7 hPa 0,0 l/m 0,4 km/h N-NW 337 3,5 C 5,0 C 2,2 km/h
17.11.2019 15:25 5,0 C 90 % 1003,7 hPa 0,0 l/m 0,7 km/h N-NO 22 3,5 C 5,0 C 2,2 km/h
17.11.2019 15:20 5,0 C 90 % 1003,7 hPa 0,0 l/m 4,0 km/h N 360 3,5 C 5,0 C 4,3 km/h
17.11.2019 15:15 5,0 C 90 % 1003,7 hPa 0,0 l/m 1,1 km/h N-NW 337 3,5 C 5,0 C 4,3 km/h
17.11.2019 15:10 4,9 C 90 % 1003,7 hPa 0,0 l/m 1,1 km/h N 360 3,4 C 4,9 C 4,3 km/h
17.11.2019 15:05 4,9 C 90 % 1003,7 hPa 0,0 l/m 6,5 km/h N-NO 22 3,4 C 4,8 C 6,5 km/h
17.11.2019 15:00 4,9 C 90 % 1003,7 hPa 0,0 l/m 6,1 km/h NW 315 3,4 C 4,9 C 8,6 km/h
17.11.2019 14:55 4,8 C 90 % 1003,7 hPa 0,0 l/m 3,2 km/h N-NW 337 3,3 C 4,8 C 4,3 km/h
17.11.2019 14:50 4,8 C 90 % 1003,7 hPa 0,0 l/m 5,4 km/h N-NO 22 3,3 C 4,8 C 6,5 km/h
17.11.2019 14:45 4,8 C 90 % 1003,7 hPa 0,0 l/m 6,8 km/h NO 45 3,3 C 4,5 C 8,6 km/h
17.11.2019 14:40 4,8 C 90 % 1003,7 hPa 0,0 l/m 6,5 km/h N 360 3,3 C 4,7 C 11,2 km/h
17.11.2019 14:35 4,8 C 90 % 1003,7 hPa 0,0 l/m 2,2 km/h N 360 3,3 C 4,8 C 4,3 km/h
17.11.2019 14:30 4,8 C 90 % 1003,7 hPa 0,0 l/m 2,2 km/h N 360 3,3 C 4,8 C 4,3 km/h
17.11.2019 14:25 4,8 C 90 % 1003,7 hPa 0,0 l/m 9,4 km/h N-NW 337 3,3 C 2,3 C 11,2 km/h
17.11.2019 14:20 4,8 C 90 % 1003,7 hPa 0,0 l/m 3,6 km/h N-NO 22 3,3 C 4,8 C 8,6 km/h
17.11.2019 14:15 4,8 C 90 % 1003,7 hPa 0,0 l/m 1,4 km/h N-NW 337 3,3 C 4,8 C 8,6 km/h
17.11.2019 14:10 4,7 C 90 % 1003,7 hPa 0,0 l/m 4,7 km/h N 360 3,2 C 4,7 C 8,6 km/h
17.11.2019 14:05 4,7 C 90 % 1003,7 hPa 0,0 l/m 5,4 km/h NO 45 3,2 C 4,7 C 8,6 km/h
17.11.2019 14:00 4,7 C 90 % 1003,7 hPa 0,0 l/m 3,2 km/h N 360 3,2 C 4,7 C 4,3 km/h
17.11.2019 13:55 4,7 C 90 % 1003,7 hPa 0,0 l/m 5,0 km/h N-NO 22 3,2 C 4,7 C 8,6 km/h
17.11.2019 13:50 4,6 C 90 % 1004,7 hPa 0,0 l/m 2,9 km/h N-NO 22 3,1 C 4,6 C 6,5 km/h
17.11.2019 13:45 4,6 C 90 % 1004,7 hPa 0,0 l/m 8,3 km/h W-NW 292 3,1 C 2,9 C 11,2 km/h
17.11.2019 13:40 4,6 C 90 % 1004,7 hPa 0,0 l/m 6,1 km/h N-NO 22 3,1 C 4,6 C 11,2 km/h
17.11.2019 13:35 4,6 C 90 % 1004,7 hPa 0,0 l/m 2,9 km/h N-NW 337 3,1 C 4,6 C 4,3 km/h
17.11.2019 13:30 4,5 C 90 % 1004,7 hPa 0,0 l/m 4,3 km/h N 360 3,0 C 4,5 C 6,5 km/h
17.11.2019 13:25 4,4 C 90 % 1004,7 hPa 0,0 l/m 5,0 km/h NW 315 2,9 C 4,4 C 6,5 km/h
17.11.2019 13:20 4,4 C 90 % 1004,7 hPa 0,0 l/m 6,1 km/h N 360 2,9 C 4,4 C 6,5 km/h
17.11.2019 13:15 4,4 C 90 % 1004,7 hPa 0,0 l/m 2,9 km/h N-NW 337 2,9 C 4,4 C 4,3 km/h
17.11.2019 13:10 4,3 C 90 % 1004,7 hPa 0,0 l/m 2,5 km/h N-NW 337 2,8 C 4,3 C 4,3 km/h
17.11.2019 13:05 4,3 C 90 % 1004,7 hPa 0,0 l/m 2,9 km/h N 360 2,8 C 4,3 C 4,3 km/h
17.11.2019 13:00 4,2 C 90 % 1004,8 hPa 0,0 l/m 1,8 km/h N 360 2,7 C 4,2 C 4,3 km/h
17.11.2019 12:55 4,2 C 90 % 1005,8 hPa 0,0 l/m 2,5 km/h N 360 2,7 C 4,2 C 4,3 km/h
17.11.2019 12:50 4,1 C 90 % 1004,8 hPa 0,0 l/m 1,1 km/h NO 45 2,6 C 4,1 C 2,2 km/h
17.11.2019 12:45 4,1 C 90 % 1005,8 hPa 0,0 l/m 0,0 km/h N-NO 22 2,6 C 4,1 C 0,0 km/h
17.11.2019 12:40 4,0 C 90 % 1005,8 hPa 0,0 l/m 0,0 km/h N 360 2,5 C 4,0 C 0,0 km/h
17.11.2019 12:35 4,0 C 90 % 1005,8 hPa 0,0 l/m 0,0 km/h N 360 2,5 C 4,0 C 0,0 km/h
17.11.2019 12:30 4,0 C 90 % 1005,8 hPa 0,0 l/m 0,0 km/h N-NO 22 2,5 C 4,0 C 2,2 km/h
17.11.2019 12:25 4,0 C 91 % 1005,8 hPa 0,0 l/m 1,8 km/h N-NW 337 2,7 C 4,0 C 2,2 km/h
17.11.2019 12:20 3,9 C 91 % 1005,8 hPa 0,3 l/m 0,7 km/h N-NO 22 2,6 C 3,9 C 2,2 km/h
17.11.2019 12:15 3,9 C 91 % 1005,8 hPa 0,0 l/m 0,0 km/h NW 315 2,6 C 3,9 C 0,0 km/h
17.11.2019 12:10 3,8 C 91 % 1005,8 hPa 0,0 l/m 0,0 km/h NW 315 2,5 C 3,8 C 0,0 km/h
17.11.2019 12:05 3,8 C 91 % 1005,8 hPa 0,0 l/m 2,5 km/h N-NW 337 2,5 C 3,8 C 4,3 km/h
17.11.2019 12:00 3,7 C 91 % 1005,8 hPa 0,3 l/m 2,9 km/h N-NW 337 2,4 C 3,7 C 4,3 km/h
17.11.2019 11:55 3,6 C 91 % 1005,8 hPa 0,0 l/m 0,7 km/h N-NO 22 2,3 C 3,6 C 2,2 km/h
17.11.2019 11:50 3,6 C 91 % 1005,8 hPa 0,3 l/m 2,9 km/h NO 45 2,3 C 3,6 C 6,5 km/h
17.11.2019 11:45 3,5 C 91 % 1005,8 hPa 0,0 l/m 1,8 km/h N 360 2,2 C 3,5 C 2,2 km/h
17.11.2019 11:40 3,4 C 91 % 1005,8 hPa 0,0 l/m 1,4 km/h N-NO 22 2,1 C 3,4 C 4,3 km/h
17.11.2019 11:35 3,4 C 91 % 1006,8 hPa 0,0 l/m 0,7 km/h N-NO 22 2,1 C 3,4 C 2,2 km/h
17.11.2019 11:30 3,3 C 91 % 1006,8 hPa 0,0 l/m 0,0 km/h O 90 2,0 C 3,3 C 0,0 km/h
17.11.2019 11:25 3,2 C 91 % 1006,8 hPa 0,0 l/m 1,1 km/h NO 45 1,9 C 3,2 C 2,2 km/h
17.11.2019 11:20 3,2 C 91 % 1006,8 hPa 0,0 l/m 0,0 km/h N-NO 22 1,9 C 3,2 C 0,0 km/h
17.11.2019 11:15 3,2 C 91 % 1006,8 hPa 0,0 l/m 1,8 km/h N-NO 22 1,9 C 3,2 C 4,3 km/h
17.11.2019 11:10 3,2 C 90 % 1006,8 hPa 0,0 l/m 0,0 km/h N-NW 337 1,7 C 3,2 C 0,0 km/h
17.11.2019 11:05 3,1 C 90 % 1006,8 hPa 0,0 l/m 0,7 km/h N-NW 337 1,6 C 3,1 C 2,2 km/h
17.11.2019 11:00 3,0 C 90 % 1006,8 hPa 0,0 l/m 0,0 km/h N-NW 337 1,5 C 3,0 C 0,0 km/h
17.11.2019 10:55 3,0 C 90 % 1006,8 hPa 0,0 l/m 2,5 km/h NW 315 1,5 C 3,0 C 4,3 km/h
17.11.2019 10:50 2,9 C 90 % 1006,8 hPa 0,0 l/m 1,8 km/h W 270 1,4 C 2,9 C 4,3 km/h
17.11.2019 10:45 2,8 C 90 % 1006,9 hPa 0,0 l/m 1,8 km/h N-NW 337 1,3 C 2,8 C 4,3 km/h
17.11.2019 10:40 2,8 C 90 % 1006,9 hPa 0,0 l/m 0,0 km/h NW 315 1,3 C 2,8 C 0,0 km/h
17.11.2019 10:35 2,7 C 90 % 1006,9 hPa 0,0 l/m 0,0 km/h NW 315 1,2 C 2,7 C 0,0 km/h
17.11.2019 10:30 2,6 C 90 % 1006,9 hPa 0,0 l/m 0,0 km/h N 360 1,1 C 2,6 C 0,0 km/h
17.11.2019 10:25 2,6 C 90 % 1007,9 hPa 0,0 l/m 2,5 km/h N 360 1,1 C 2,6 C 4,3 km/h
17.11.2019 10:20 2,5 C 90 % 1007,9 hPa 0,0 l/m 0,0 km/h N 360 1,0 C 2,5 C 0,0 km/h
17.11.2019 10:15 2,4 C 90 % 1007,9 hPa 0,0 l/m 3,2 km/h N-NW 337 0,9 C 2,4 C 6,5 km/h
17.11.2019 10:10 2,4 C 90 % 1007,9 hPa 0,0 l/m 2,2 km/h N 360 0,9 C 2,4 C 4,3 km/h
17.11.2019 10:05 2,4 C 90 % 1007,9 hPa 0,0 l/m 2,2 km/h N-NW 337 0,9 C 2,4 C 6,5 km/h
17.11.2019 10:00 2,3 C 90 % 1007,9 hPa 0,0 l/m 0,7 km/h N-NW 337 0,8 C 2,3 C 2,2 km/h
17.11.2019 09:55 2,2 C 90 % 1007,9 hPa 0,0 l/m 0,0 km/h N-NW 337 0,7 C 2,2 C 2,2 km/h
17.11.2019 09:50 2,2 C 90 % 1007,9 hPa 0,0 l/m 0,0 km/h N-NW 337 0,7 C 2,2 C 0,0 km/h
17.11.2019 09:45 2,1 C 90 % 1007,9 hPa 0,0 l/m 0,7 km/h NO 45 0,6 C 2,1 C 2,2 km/h
17.11.2019 09:40 2,0 C 90 % 1007,9 hPa 0,0 l/m 0,7 km/h N 360 0,5 C 2,0 C 4,3 km/h
17.11.2019 09:35 2,0 C 90 % 1007,9 hPa 0,0 l/m 2,2 km/h N-NW 337 0,5 C 2,0 C 4,3 km/h
17.11.2019 09:30 1,9 C 90 % 1007,9 hPa 0,0 l/m 2,5 km/h N 360 0,4 C 1,9 C 4,3 km/h
17.11.2019 09:25 1,9 C 90 % 1007,9 hPa 0,0 l/m 3,6 km/h N-NW 337 0,4 C 1,9 C 4,3 km/h
17.11.2019 09:20 1,8 C 90 % 1008,9 hPa 0,0 l/m 1,4 km/h N 360 0,3 C 1,8 C 4,3 km/h
17.11.2019 09:15 1,8 C 90 % 1008,9 hPa 0,0 l/m 0,0 km/h N-NO 22 0,3 C 1,8 C 2,2 km/h
17.11.2019 09:10 1,8 C 90 % 1008,9 hPa 0,0 l/m 0,0 km/h NW 315 0,3 C 1,8 C 2,2 km/h
17.11.2019 09:05 1,8 C 90 % 1008,9 hPa 0,0 l/m 0,7 km/h N-NO 22 0,3 C 1,8 C 2,2 km/h
17.11.2019 09:00 1,7 C 90 % 1008,9 hPa 0,0 l/m 0,0 km/h N-NO 22 0,2 C 1,7 C 2,2 km/h
17.11.2019 08:55 1,7 C 90 % 1008,9 hPa 0,0 l/m 2,5 km/h N 360 0,2 C 1,7 C 4,3 km/h
17.11.2019 08:50 1,6 C 90 % 1008,9 hPa 0,0 l/m 1,4 km/h N-NW 337 0,1 C 1,6 C 4,3 km/h
17.11.2019 08:45 1,6 C 90 % 1008,9 hPa 0,0 l/m 0,0 km/h N 360 0,1 C 1,6 C 0,0 km/h
17.11.2019 08:40 1,6 C 90 % 1010,0 hPa 0,0 l/m 0,0 km/h N-NO 22 0,1 C 1,6 C 0,0 km/h
17.11.2019 08:35 1,6 C 90 % 1010,0 hPa 0,0 l/m 0,0 km/h N-NO 22 0,1 C 1,6 C 0,0 km/h
17.11.2019 08:30 1,6 C 90 % 1010,0 hPa 0,0 l/m 0,0 km/h N-NO 22 0,1 C 1,6 C 0,0 km/h
17.11.2019 08:25 1,6 C 90 % 1010,0 hPa 0,0 l/m 0,0 km/h N-NO 22 0,1 C 1,6 C 0,0 km/h
17.11.2019 08:20 1,5 C 90 % 1010,0 hPa 0,0 l/m 0,0 km/h N-NO 22 0,0 C 1,5 C 0,0 km/h
17.11.2019 08:15 1,5 C 90 % 1010,0 hPa 0,0 l/m 0,0 km/h N 360 0,0 C 1,5 C 0,0 km/h
17.11.2019 08:10 1,5 C 89 % 1010,0 hPa 0,0 l/m 0,0 km/h N 360 -0,1 C 1,5 C 0,0 km/h
17.11.2019 08:05 1,4 C 89 % 1010,0 hPa 0,0 l/m 0,0 km/h N 360 -0,2 C 1,4 C 0,0 km/h
17.11.2019 08:00 1,4 C 89 % 1010,0 hPa 0,0 l/m 0,0 km/h N 360 -0,2 C 1,4 C 0,0 km/h
17.11.2019 07:55 1,4 C 89 % 1010,0 hPa 0,0 l/m 0,0 km/h N 360 -0,2 C 1,4 C 0,0 km/h
17.11.2019 07:50 1,4 C 89 % 1009,0 hPa 0,0 l/m 1,4 km/h N-NO 22 -0,2 C 1,4 C 2,2 km/h
17.11.2019 07:45 1,4 C 89 % 1010,0 hPa 0,0 l/m 0,0 km/h N-NO 22 -0,2 C 1,4 C 2,2 km/h
17.11.2019 07:40 1,4 C 89 % 1010,0 hPa 0,0 l/m 0,0 km/h N 360 -0,2 C 1,4 C 0,0 km/h
17.11.2019 07:35 1,3 C 89 % 1010,0 hPa 0,0 l/m 0,0 km/h N 360 -0,3 C 1,3 C 0,0 km/h
17.11.2019 07:30 1,3 C 89 % 1010,0 hPa 0,0 l/m 0,0 km/h N-NO 22 -0,3 C 1,3 C 0,0 km/h
17.11.2019 07:25 1,4 C 89 % 1010,0 hPa 0,0 l/m 0,0 km/h N-NO 22 -0,2 C 1,4 C 0,0 km/h
17.11.2019 07:20 1,4 C 89 % 1010,0 hPa 0,0 l/m 0,0 km/h N-NW 337 -0,2 C 1,4 C 0,0 km/h
17.11.2019 07:15 1,3 C 89 % 1010,0 hPa 0,0 l/m 0,7 km/h W-NW 292 -0,3 C 1,3 C 2,2 km/h
17.11.2019 07:10 1,3 C 89 % 1010,0 hPa 0,0 l/m 0,4 km/h N 360 -0,3 C 1,3 C 2,2 km/h
17.11.2019 07:05 1,3 C 89 % 1010,0 hPa 0,0 l/m 0,7 km/h N 360 -0,3 C 1,3 C 2,2 km/h
17.11.2019 07:00 1,3 C 89 % 1010,0 hPa 0,0 l/m 0,4 km/h NO 45 -0,3 C 1,3 C 4,3 km/h
17.11.2019 06:55 1,3 C 89 % 1010,0 hPa 0,0 l/m 1,1 km/h NO 45 -0,3 C 1,3 C 4,3 km/h
17.11.2019 06:50 1,3 C 89 % 1010,0 hPa 0,0 l/m 5,4 km/h N-NW 337 -0,3 C 1,3 C 8,6 km/h
17.11.2019 06:45 1,4 C 89 % 1010,0 hPa 0,0 l/m 2,2 km/h N-NO 22 -0,2 C 1,4 C 6,5 km/h
17.11.2019 06:40 1,3 C 89 % 1010,0 hPa 0,0 l/m 1,8 km/h N-NO 22 -0,3 C 1,3 C 4,3 km/h
17.11.2019 06:35 1,3 C 89 % 1010,0 hPa 0,0 l/m 0,0 km/h N 360 -0,3 C 1,3 C 0,0 km/h
17.11.2019 06:30 1,3 C 89 % 1010,0 hPa 0,0 l/m 1,1 km/h N-NW 337 -0,3 C 1,3 C 2,2 km/h
17.11.2019 06:25 1,4 C 89 % 1010,0 hPa 0,0 l/m 0,7 km/h N 360 -0,2 C 1,4 C 4,3 km/h
17.11.2019 06:20 1,4 C 89 % 1010,0 hPa 0,0 l/m 1,1 km/h N-NW 337 -0,2 C 1,4 C 2,2 km/h
17.11.2019 06:15 1,4 C 89 % 1010,0 hPa 0,0 l/m 0,0 km/h NW 315 -0,2 C 1,4 C 2,2 km/h
17.11.2019 06:10 1,5 C 89 % 1010,0 hPa 0,0 l/m 1,8 km/h N-NO 22 -0,1 C 1,5 C 2,2 km/h
17.11.2019 06:05 1,5 C 89 % 1010,0 hPa 0,0 l/m 2,5 km/h N-NW 337 -0,1 C 1,5 C 4,3 km/h
17.11.2019 06:00 1,6 C 89 % 1010,0 hPa 0,0 l/m 1,1 km/h N-NW 337 -0,0 C 1,6 C 2,2 km/h
17.11.2019 05:55 1,6 C 89 % 1010,0 hPa 0,0 l/m 0,0 km/h N-NO 22 -0,0 C 1,6 C 0,0 km/h
17.11.2019 05:50 1,6 C 89 % 1010,0 hPa 0,0 l/m 1,8 km/h N-NW 337 -0,0 C 1,6 C 4,3 km/h
17.11.2019 05:45 1,6 C 89 % 1010,0 hPa 0,0 l/m 1,1 km/h N 360 -0,0 C 1,6 C 2,2 km/h
17.11.2019 05:40 1,7 C 89 % 1011,0 hPa 0,0 l/m 0,4 km/h N 360 0,1 C 1,7 C 2,2 km/h
17.11.2019 05:35 1,8 C 89 % 1011,0 hPa 0,0 l/m 0,0 km/h N-NW 337 0,2 C 1,8 C 0,0 km/h
17.11.2019 05:30 1,8 C 89 % 1011,0 hPa 0,0 l/m 0,0 km/h N-NW 337 0,2 C 1,8 C 0,0 km/h
17.11.2019 05:25 1,8 C 89 % 1011,0 hPa 0,0 l/m 0,4 km/h N-NW 337 0,2 C 1,8 C 2,2 km/h
17.11.2019 05:20 1,9 C 89 % 1011,0 hPa 0,0 l/m 0,0 km/h N 360 0,3 C 1,9 C 0,0 km/h
17.11.2019 05:15 1,9 C 89 % 1011,0 hPa 0,0 l/m 0,0 km/h N 360 0,3 C 1,9 C 0,0 km/h
17.11.2019 05:10 1,9 C 89 % 1011,0 hPa 0,0 l/m 0,7 km/h N 360 0,3 C 1,9 C 2,2 km/h
17.11.2019 05:05 2,0 C 89 % 1010,9 hPa 0,0 l/m 0,0 km/h N-NW 337 0,4 C 2,0 C 0,0 km/h
17.11.2019 05:00 2,0 C 89 % 1010,9 hPa 0,0 l/m 0,0 km/h N 360 0,4 C 2,0 C 2,2 km/h
17.11.2019 04:55 2,0 C 88 % 1010,9 hPa 0,0 l/m 0,7 km/h N-NO 22 0,2 C 2,0 C 2,2 km/h
17.11.2019 04:50 2,0 C 88 % 1010,9 hPa 0,0 l/m 0,0 km/h N-NW 337 0,2 C 2,0 C 0,0 km/h
17.11.2019 04:45 2,0 C 88 % 1010,9 hPa 0,0 l/m 0,7 km/h NW 315 0,2 C 2,0 C 2,2 km/h
17.11.2019 04:40 2,0 C 88 % 1010,9 hPa 0,0 l/m 1,1 km/h N 360 0,2 C 2,0 C 2,2 km/h
17.11.2019 04:35 2,0 C 88 % 1009,9 hPa 0,0 l/m 0,0 km/h NO 45 0,2 C 2,0 C 0,0 km/h
17.11.2019 04:30 2,0 C 88 % 1010,9 hPa 0,0 l/m 0,0 km/h NO 45 0,2 C 2,0 C 0,0 km/h
17.11.2019 04:25 2,1 C 88 % 1009,9 hPa 0,0 l/m 0,0 km/h NO 45 0,3 C 2,1 C 0,0 km/h
17.11.2019 04:20 2,2 C 88 % 1009,9 hPa 0,0 l/m 0,0 km/h NO 45 0,4 C 2,2 C 0,0 km/h
17.11.2019 04:15 2,2 C 88 % 1009,9 hPa 0,0 l/m 0,7 km/h W-NW 292 0,4 C 2,2 C 2,2 km/h
17.11.2019 04:10 2,2 C 88 % 1009,9 hPa 0,0 l/m 0,0 km/h W 270 0,4 C 2,2 C 0,0 km/h
17.11.2019 04:05 2,2 C 88 % 1009,9 hPa 0,0 l/m 0,0 km/h W 270 0,4 C 2,2 C 0,0 km/h
17.11.2019 04:00 2,2 C 88 % 1009,9 hPa 0,0 l/m 0,0 km/h W 270 0,4 C 2,2 C 0,0 km/h
17.11.2019 03:55 2,2 C 88 % 1009,9 hPa 0,0 l/m 0,0 km/h W 270 0,4 C 2,2 C 0,0 km/h
17.11.2019 03:50 2,2 C 88 % 1010,9 hPa 0,0 l/m 0,7 km/h W 270 0,4 C 2,2 C 2,2 km/h
17.11.2019 03:45 2,2 C 88 % 1010,9 hPa 0,0 l/m 2,2 km/h W 270 0,4 C 2,2 C 2,2 km/h
17.11.2019 03:40 2,2 C 87 % 1010,9 hPa 0,0 l/m 0,0 km/h N-NW 337 0,3 C 2,2 C 0,0 km/h
17.11.2019 03:35 2,3 C 87 % 1010,9 hPa 0,0 l/m 0,0 km/h N 360 0,4 C 2,3 C 0,0 km/h
17.11.2019 03:30 2,3 C 87 % 1010,9 hPa 0,0 l/m 0,0 km/h N 360 0,4 C 2,3 C 0,0 km/h
17.11.2019 03:25 2,4 C 87 % 1010,9 hPa 0,0 l/m 0,0 km/h N 360 0,5 C 2,4 C 0,0 km/h
17.11.2019 03:20 2,5 C 87 % 1010,9 hPa 0,0 l/m 0,0 km/h N-NW 337 0,6 C 2,5 C 0,0 km/h
17.11.2019 03:15 2,6 C 87 % 1010,9 hPa 0,0 l/m 3,2 km/h N 360 0,7 C 2,6 C 6,5 km/h
17.11.2019 03:10 2,8 C 88 % 1010,9 hPa 0,0 l/m 1,1 km/h N-NO 22 1,0 C 2,8 C 2,2 km/h
17.11.2019 03:05 2,8 C 88 % 1010,9 hPa 0,0 l/m 0,7 km/h N 360 1,0 C 2,8 C 2,2 km/h
17.11.2019 03:00 3,0 C 87 % 1010,9 hPa 0,0 l/m 3,6 km/h N 360 1,1 C 3,0 C 4,3 km/h
17.11.2019 02:55 3,2 C 87 % 1010,9 hPa 0,0 l/m 1,8 km/h N-NO 22 1,2 C 3,2 C 4,3 km/h
17.11.2019 02:50 3,5 C 87 % 1011,9 hPa 0,0 l/m 0,0 km/h N 360 1,5 C 3,5 C 0,0 km/h
17.11.2019 02:45 3,7 C 87 % 1011,9 hPa 0,0 l/m 0,0 km/h N-NO 22 1,7 C 3,7 C 2,2 km/h
17.11.2019 02:40 4,1 C 87 % 1011,9 hPa 0,0 l/m 0,4 km/h N-NO 22 2,1 C 4,1 C 2,2 km/h
17.11.2019 02:35 4,4 C 87 % 1011,8 hPa 0,0 l/m 4,0 km/h NO 45 2,4 C 4,4 C 4,3 km/h
17.11.2019 02:30 4,7 C 87 % 1011,8 hPa 0,0 l/m 2,9 km/h N-NO 22 2,7 C 4,7 C 6,5 km/h
17.11.2019 02:25 4,9 C 87 % 1011,8 hPa 0,0 l/m 4,0 km/h N 360 2,9 C 4,9 C 4,3 km/h
17.11.2019 02:20 5,1 C 88 % 1011,8 hPa 0,0 l/m 0,0 km/h N 360 3,3 C 5,1 C 0,0 km/h
17.11.2019 02:15 5,2 C 88 % 1011,8 hPa 0,0 l/m 0,0 km/h N 360 3,4 C 5,2 C 0,0 km/h
17.11.2019 02:10 5,2 C 88 % 1011,8 hPa 0,0 l/m 0,0 km/h N 360 3,4 C 5,2 C 0,0 km/h
17.11.2019 02:05 5,3 C 88 % 1011,8 hPa 0,0 l/m 0,0 km/h N 360 3,5 C 5,3 C 0,0 km/h
17.11.2019 02:00 5,4 C 88 % 1011,8 hPa 0,0 l/m 0,0 km/h N-NO 22 3,6 C 5,4 C 0,0 km/h
17.11.2019 01:55 5,4 C 88 % 1011,8 hPa 0,0 l/m 0,0 km/h O 90 3,6 C 5,4 C 0,0 km/h
17.11.2019 01:50 5,4 C 88 % 1011,8 hPa 0,0 l/m 0,4 km/h O-SO 112 3,6 C 5,4 C 2,2 km/h
17.11.2019 01:45 5,4 C 88 % 1011,8 hPa 0,0 l/m 3,2 km/h S-SO 157 3,6 C 5,4 C 6,5 km/h
17.11.2019 01:40 5,4 C 88 % 1011,8 hPa 0,0 l/m 4,3 km/h NO 45 3,6 C 5,4 C 8,6 km/h
17.11.2019 01:35 5,3 C 88 % 1011,8 hPa 0,0 l/m 7,9 km/h O 90 3,5 C 4,0 C 13,3 km/h
17.11.2019 01:30 5,3 C 89 % 1011,8 hPa 0,0 l/m 1,4 km/h O-SO 112 3,6 C 5,3 C 11,2 km/h
17.11.2019 01:25 5,2 C 89 % 1011,8 hPa 0,0 l/m 9,7 km/h O-SO 112 3,5 C 2,5 C 13,3 km/h
17.11.2019 01:20 5,2 C 89 % 1011,8 hPa 0,0 l/m 13,7 km/h O 90 3,5 C 0,0 C 17,6 km/h
17.11.2019 01:15 5,2 C 89 % 1011,8 hPa 0,0 l/m 9,0 km/h O-NO 67 3,5 C 3,0 C 15,5 km/h
17.11.2019 01:10 5,2 C 89 % 1011,8 hPa 0,0 l/m 10,1 km/h O-SO 112 3,5 C 2,2 C 13,3 km/h
17.11.2019 01:05 5,2 C 89 % 1011,8 hPa 0,0 l/m 15,5 km/h O-NO 67 3,5 C -0,9 C 19,8 km/h
17.11.2019 01:00 5,2 C 89 % 1011,8 hPa 0,0 l/m 11,9 km/h O-SO 112 3,5 C 1,0 C 15,5 km/h
17.11.2019 00:55 5,2 C 89 % 1011,8 hPa 0,0 l/m 13,0 km/h SO 135 3,5 C 0,4 C 15,5 km/h
17.11.2019 00:50 5,2 C 89 % 1011,8 hPa 0,0 l/m 8,3 km/h O-SO 112 3,5 C 3,6 C 13,3 km/h
17.11.2019 00:45 5,2 C 89 % 1011,8 hPa 0,0 l/m 10,1 km/h SO 135 3,5 C 2,2 C 15,5 km/h
17.11.2019 00:40 5,2 C 89 % 1011,8 hPa 0,0 l/m 9,7 km/h SO 135 3,5 C 2,5 C 17,6 km/h
17.11.2019 00:35 5,2 C 89 % 1011,8 hPa 0,0 l/m 5,0 km/h S-SO 157 3,5 C 5,2 C 8,6 km/h
17.11.2019 00:30 5,2 C 89 % 1011,8 hPa 0,0 l/m 8,6 km/h O 90 3,5 C 3,3 C 17,6 km/h
17.11.2019 00:25 5,2 C 89 % 1011,8 hPa 0,0 l/m 11,5 km/h O-SO 112 3,5 C 1,3 C 13,3 km/h
17.11.2019 00:20 5,2 C 89 % 1011,8 hPa 0,0 l/m 11,2 km/h SO 135 3,5 C 1,5 C 15,5 km/h
17.11.2019 00:15 5,2 C 89 % 1011,8 hPa 0,0 l/m 9,4 km/h O 90 3,5 C 2,7 C 13,3 km/h
17.11.2019 00:10 5,1 C 89 % 1011,8 hPa 0,0 l/m 6,5 km/h O-SO 112 3,4 C 5,0 C 11,2 km/h
17.11.2019 00:05 5,1 C 89 % 1011,8 hPa 0,0 l/m 7,6 km/h SO 135 3,4 C 4,0 C 11,2 km/h
17.11.2019 00:00 5,0 C 89 % 1011,8 hPa 0,0 l/m 1,8 km/h O 90 3,3 C 5,0 C 8,6 km/h
16.11.2019 23:55 4,9 C 89 % 1011,8 hPa 0,0 l/m 2,2 km/h O 90 3,2 C 4,9 C 4,3 km/h
16.11.2019 23:50 4,8 C 89 % 1011,8 hPa 0,0 l/m 5,4 km/h SO 135 3,1 C 4,8 C 6,5 km/h
16.11.2019 23:45 4,6 C 89 % 1011,8 hPa 0,0 l/m 4,0 km/h O-SO 112 2,9 C 4,6 C 8,6 km/h
16.11.2019 23:40 4,5 C 89 % 1011,8 hPa 0,0 l/m 4,7 km/h SO 135 2,8 C 4,5 C 6,5 km/h
16.11.2019 23:35 4,4 C 89 % 1011,8 hPa 0,0 l/m 6,5 km/h O-NO 67 2,7 C 4,3 C 13,3 km/h
16.11.2019 23:30 4,1 C 89 % 1011,9 hPa 0,0 l/m 6,8 km/h O-NO 67 2,5 C 3,7 C 11,2 km/h
16.11.2019 23:25 3,7 C 90 % 1011,9 hPa 0,0 l/m 8,3 km/h O-NO 67 2,2 C 2,0 C 11,2 km/h
16.11.2019 23:20 3,2 C 90 % 1011,9 hPa 0,0 l/m 8,3 km/h O-SO 112 1,7 C 1,5 C 13,3 km/h
16.11.2019 23:15 2,4 C 89 % 1011,9 hPa 0,0 l/m 4,0 km/h O-SO 112 0,8 C 2,4 C 11,2 km/h
16.11.2019 23:10 2,3 C 88 % 1011,9 hPa 0,0 l/m 0,0 km/h W-SW 247 0,5 C 2,3 C 2,2 km/h
16.11.2019 23:05 2,3 C 88 % 1011,9 hPa 0,0 l/m 1,8 km/h S-SO 157 0,5 C 2,3 C 4,3 km/h
16.11.2019 23:00 2,2 C 88 % 1012,0 hPa 0,0 l/m 0,0 km/h W 270 0,4 C 2,2 C 0,0 km/h
16.11.2019 22:55 2,2 C 88 % 1012,0 hPa 0,0 l/m 4,0 km/h SW 225 0,4 C 2,2 C 6,5 km/h
16.11.2019 22:50 2,2 C 88 % 1012,0 hPa 0,0 l/m 1,8 km/h SW 225 0,4 C 2,2 C 6,5 km/h
16.11.2019 22:45 2,3 C 88 % 1011,9 hPa 0,0 l/m 3,2 km/h O-SO 112 0,5 C 2,3 C 4,3 km/h
16.11.2019 22:40 2,4 C 88 % 1011,9 hPa 0,0 l/m 1,1 km/h W-SW 247 0,6 C 2,4 C 2,2 km/h
16.11.2019 22:35 2,5 C 88 % 1011,9 hPa 0,0 l/m 1,1 km/h W-SW 247 0,7 C 2,5 C 4,3 km/h
16.11.2019 22:30 2,6 C 88 % 1011,9 hPa 0,0 l/m 0,0 km/h SW 225 0,8 C 2,6 C 0,0 km/h
16.11.2019 22:25 2,6 C 88 % 1011,9 hPa 0,0 l/m 0,0 km/h S 180 0,8 C 2,6 C 0,0 km/h
16.11.2019 22:20 2,7 C 88 % 1011,9 hPa 0,0 l/m 0,0 km/h S 180 0,9 C 2,7 C 0,0 km/h
16.11.2019 22:15 2,8 C 88 % 1011,9 hPa 0,0 l/m 0,0 km/h S 180 1,0 C 2,8 C 0,0 km/h
16.11.2019 22:10 2,8 C 87 % 1011,9 hPa 0,0 l/m 0,0 km/h W-SW 247 0,9 C 2,8 C 0,0 km/h
16.11.2019 22:05 2,9 C 87 % 1011,9 hPa 0,0 l/m 0,0 km/h O-SO 112 1,0 C 2,9 C 0,0 km/h
16.11.2019 22:00 3,0 C 88 % 1011,9 hPa 0,0 l/m 0,0 km/h O-SO 112 1,2 C 3,0 C 0,0 km/h
16.11.2019 21:55 3,1 C 88 % 1011,9 hPa 0,0 l/m 0,4 km/h O-NO 67 1,3 C 3,1 C 2,2 km/h
16.11.2019 21:50 3,2 C 88 % 1011,9 hPa 0,0 l/m 0,0 km/h N-NW 337 1,4 C 3,2 C 0,0 km/h
16.11.2019 21:45 3,3 C 88 % 1011,9 hPa 0,0 l/m 0,0 km/h N-NW 337 1,5 C 3,3 C 0,0 km/h
16.11.2019 21:40 3,4 C 88 % 1011,9 hPa 0,0 l/m 0,0 km/h N-NW 337 1,6 C 3,4 C 0,0 km/h
16.11.2019 21:35 3,5 C 88 % 1011,9 hPa 0,0 l/m 0,0 km/h W-SW 247 1,7 C 3,5 C 0,0 km/h
16.11.2019 21:30 3,6 C 87 % 1011,9 hPa 0,0 l/m 0,0 km/h W-SW 247 1,6 C 3,6 C 0,0 km/h
16.11.2019 21:25 3,7 C 87 % 1011,9 hPa 0,0 l/m 0,0 km/h S-SO 157 1,7 C 3,7 C 0,0 km/h
16.11.2019 21:20 3,8 C 87 % 1011,9 hPa 0,0 l/m 0,0 km/h S-SO 157 1,8 C 3,8 C 0,0 km/h
16.11.2019 21:15 4,0 C 87 % 1012,9 hPa 0,0 l/m 0,0 km/h S-SO 157 2,0 C 4,0 C 0,0 km/h
16.11.2019 21:10 4,1 C 87 % 1012,9 hPa 0,0 l/m 0,0 km/h S-SO 157 2,1 C 4,1 C 0,0 km/h
16.11.2019 21:05 4,2 C 87 % 1011,9 hPa 0,0 l/m 0,0 km/h SO 135 2,2 C 4,2 C 0,0 km/h
16.11.2019 21:00 4,3 C 87 % 1011,8 hPa 0,0 l/m 1,1 km/h O 90 2,3 C 4,3 C 4,3 km/h
16.11.2019 20:55 4,4 C 87 % 1011,8 hPa 0,0 l/m 0,0 km/h W 270 2,4 C 4,4 C 2,2 km/h
16.11.2019 20:50 4,6 C 87 % 1011,8 hPa 0,0 l/m 0,0 km/h W-SW 247 2,6 C 4,6 C 2,2 km/h
16.11.2019 20:45 4,8 C 87 % 1011,8 hPa 0,0 l/m 0,0 km/h N 360 2,8 C 4,8 C 0,0 km/h
16.11.2019 20:40 4,9 C 87 % 1011,8 hPa 0,0 l/m 0,0 km/h O 90 2,9 C 4,9 C 0,0 km/h
16.11.2019 20:35 5,2 C 87 % 1011,8 hPa 0,0 l/m 2,2 km/h O 90 3,2 C 5,2 C 4,3 km/h
16.11.2019 20:30 5,6 C 87 % 1011,8 hPa 0,0 l/m 2,9 km/h N 360 3,6 C 5,6 C 4,3 km/h
16.11.2019 20:25 6,0 C 87 % 1011,8 hPa 0,0 l/m 4,0 km/h W-NW 292 4,0 C 6,0 C 4,3 km/h
16.11.2019 20:20 6,4 C 88 % 1011,7 hPa 0,0 l/m 0,0 km/h O 90 4,6 C 6,4 C 0,0 km/h
16.11.2019 20:15 6,4 C 88 % 1011,7 hPa 0,0 l/m 1,1 km/h NO 45 4,6 C 6,4 C 4,3 km/h
16.11.2019 20:10 6,4 C 88 % 1011,7 hPa 0,0 l/m 0,7 km/h O-SO 112 4,6 C 6,4 C 2,2 km/h
16.11.2019 20:05 6,4 C 88 % 1011,7 hPa 0,0 l/m 0,7 km/h O 90 4,6 C 6,4 C 2,2 km/h
16.11.2019 20:00 6,4 C 88 % 1010,7 hPa 0,0 l/m 5,0 km/h SO 135 4,6 C 6,4 C 8,6 km/h
16.11.2019 19:55 6,4 C 88 % 1010,7 hPa 0,0 l/m 4,0 km/h O 90 4,6 C 6,4 C 8,6 km/h
16.11.2019 19:50 6,4 C 88 % 1010,7 hPa 0,0 l/m 4,0 km/h O-SO 112 4,6 C 6,4 C 8,6 km/h
16.11.2019 19:45 6,3 C 88 % 1010,7 hPa 0,0 l/m 6,8 km/h SO 135 4,5 C 6,0 C 11,2 km/h
16.11.2019 19:40 6,2 C 87 % 1010,7 hPa 0,0 l/m 9,4 km/h O-SO 112 4,2 C 3,8 C 13,3 km/h
16.11.2019 19:35 6,2 C 87 % 1011,8 hPa 0,0 l/m 0,0 km/h SO 135 4,2 C 6,2 C 0,0 km/h
16.11.2019 19:30 6,4 C 88 % 1011,7 hPa 0,0 l/m 3,6 km/h SO 135 4,6 C 6,4 C 4,3 km/h
16.11.2019 19:25 6,4 C 88 % 1011,7 hPa 0,0 l/m 4,3 km/h SO 135 4,6 C 6,4 C 6,5 km/h
16.11.2019 19:20 6,4 C 88 % 1011,7 hPa 0,0 l/m 2,9 km/h SO 135 4,6 C 6,4 C 4,3 km/h
16.11.2019 19:15 6,5 C 88 % 1011,7 hPa 0,0 l/m 4,0 km/h S-SO 157 4,7 C 6,5 C 6,5 km/h
16.11.2019 19:10 6,5 C 88 % 1011,7 hPa 0,0 l/m 4,0 km/h SO 135 4,7 C 6,5 C 6,5 km/h
16.11.2019 19:05 6,5 C 88 % 1011,7 hPa 0,0 l/m 0,0 km/h SO 135 4,7 C 6,5 C 0,0 km/h
16.11.2019 19:00 6,4 C 88 % 1011,7 hPa 0,0 l/m 8,3 km/h SO 135 4,6 C 4,8 C 8,6 km/h
16.11.2019 18:55 6,4 C 88 % 1011,7 hPa 0,0 l/m 4,3 km/h SO 135 4,6 C 6,4 C 8,6 km/h
16.11.2019 18:50 6,4 C 88 % 1011,7 hPa 0,0 l/m 5,4 km/h SO 135 4,6 C 6,4 C 8,6 km/h
16.11.2019 18:45 6,3 C 88 % 1011,7 hPa 0,0 l/m 6,5 km/h O 90 4,5 C 6,2 C 13,3 km/h
16.11.2019 18:40 6,3 C 88 % 1011,7 hPa 0,0 l/m 8,6 km/h O-SO 112 4,5 C 4,5 C 15,5 km/h
16.11.2019 18:35 6,2 C 88 % 1011,8 hPa 0,0 l/m 2,9 km/h O 90 4,4 C 6,2 C 4,3 km/h
16.11.2019 18:30 6,3 C 88 % 1011,7 hPa 0,0 l/m 3,2 km/h O-SO 112 4,5 C 6,3 C 8,6 km/h
16.11.2019 18:25 6,3 C 87 % 1011,7 hPa 0,0 l/m 5,0 km/h S-SO 157 4,3 C 6,3 C 8,6 km/h
16.11.2019 18:20 6,3 C 87 % 1011,7 hPa 0,0 l/m 6,8 km/h O-SO 112 4,3 C 6,0 C 8,6 km/h
16.11.2019 18:15 6,3 C 87 % 1011,7 hPa 0,0 l/m 0,4 km/h O-SO 112 4,3 C 6,3 C 2,2 km/h
16.11.2019 18:10 6,3 C 87 % 1011,7 hPa 0,0 l/m 5,8 km/h O-SO 112 4,3 C 6,3 C 6,5 km/h
16.11.2019 18:05 6,3 C 87 % 1011,7 hPa 0,0 l/m 7,2 km/h O-SO 112 4,3 C 5,6 C 11,2 km/h
16.11.2019 18:00 6,3 C 87 % 1011,7 hPa 0,0 l/m 6,1 km/h O-SO 112 4,3 C 6,3 C 8,6 km/h
16.11.2019 17:55 6,4 C 87 % 1011,7 hPa 0,0 l/m 6,5 km/h SO 135 4,4 C 6,3 C 8,6 km/h
16.11.2019 17:50 6,4 C 87 % 1011,7 hPa 0,0 l/m 6,1 km/h O-SO 112 4,4 C 6,4 C 11,2 km/h
16.11.2019 17:45 6,4 C 87 % 1011,7 hPa 0,0 l/m 4,0 km/h O-SO 112 4,4 C 6,4 C 6,5 km/h
16.11.2019 17:40 6,4 C 87 % 1011,7 hPa 0,0 l/m 6,5 km/h O-SO 112 4,4 C 6,3 C 11,2 km/h
16.11.2019 17:35 6,5 C 86 % 1011,7 hPa 0,0 l/m 4,0 km/h O-SO 112 4,3 C 6,5 C 6,5 km/h
16.11.2019 17:30 6,6 C 86 % 1011,7 hPa 0,0 l/m 4,3 km/h SO 135 4,4 C 6,6 C 8,6 km/h
16.11.2019 17:25 6,6 C 87 % 1011,7 hPa 0,0 l/m 7,2 km/h O-NO 67 4,6 C 5,9 C 11,2 km/h
16.11.2019 17:20 6,6 C 87 % 1011,7 hPa 0,0 l/m 6,5 km/h O-SO 112 4,6 C 6,5 C 8,6 km/h
16.11.2019 17:15 6,7 C 87 % 1011,7 hPa 0,0 l/m 6,5 km/h SO 135 4,7 C 6,6 C 8,6 km/h
16.11.2019 17:10 6,7 C 87 % 1011,7 hPa 0,0 l/m 6,1 km/h O 90 4,7 C 6,7 C 8,6 km/h
16.11.2019 17:05 6,7 C 87 % 1011,7 hPa 0,0 l/m 5,8 km/h O-SO 112 4,7 C 6,7 C 8,6 km/h
16.11.2019 17:00 6,8 C 87 % 1011,7 hPa 0,0 l/m 7,6 km/h S-SO 157 4,8 C 5,8 C 11,2 km/h
_ Min-Zeit 07:35 17:35 16:45 - 12:45 - - 07:35 01:05 12:45
Minimum _ 1,3 C 86 % 1002,7 hPa - 0,0 km/h - - -0,3 C -0,9 C 0,0 km/h
_ Max-Zeit 17:00 12:25 21:15 12:20 01:05 - - 17:00 17:10 01:05
Maximum _ 6,8 C 91 % 1012,9 hPa 0,3 l/m 15,5 km/h
O-NO
- - 4,8 C 6,7 C 19,8 km/h
O-NO
Durchschnitt _ 4,0 C 89 % 1009,5 hPa #0,8 l/m 3,0 km/h N - 2,3 C 3,7 C 5,0 km/h